createdAt,value
2018-06-05T00:03:59.095Z,17.97
2018-06-05T00:09:02.073Z,19.20
2018-06-05T00:14:05.109Z,19.87
2018-06-05T00:19:08.086Z,17.90
2018-06-05T00:24:11.214Z,19.77
2018-06-05T00:29:14.230Z,17.70
2018-06-05T00:34:17.201Z,18.73
2018-06-05T00:39:20.182Z,18.43
2018-06-05T00:44:23.186Z,18.30
2018-06-05T00:49:26.186Z,19.20
2018-06-05T00:54:29.169Z,18.50
2018-06-05T00:59:32.530Z,19.50
2018-06-05T01:04:35.509Z,19.30
2018-06-05T01:09:38.505Z,18.47
2018-06-05T01:14:41.486Z,19.00
2018-06-05T01:19:44.477Z,16.80
2018-06-05T01:24:47.448Z,15.37
2018-06-05T01:29:50.433Z,15.33
2018-06-05T01:34:53.404Z,16.27
2018-06-05T01:39:56.384Z,15.10
2018-06-05T01:44:59.405Z,15.37
2018-06-05T01:50:02.385Z,14.20
2018-06-05T01:55:05.377Z,13.90
2018-06-05T02:00:08.367Z,12.93
2018-06-05T02:05:11.330Z,13.07
2018-06-05T02:10:14.293Z,14.30
2018-06-05T02:15:17.288Z,14.47
2018-06-05T02:20:20.261Z,14.27
2018-06-05T02:25:23.257Z,14.00
2018-06-05T02:30:26.267Z,13.97
2018-06-05T02:35:29.288Z,14.70
2018-06-05T02:40:32.298Z,14.77
2018-06-05T02:45:35.282Z,15.00
2018-06-05T02:50:38.265Z,15.40
2018-06-05T02:55:41.297Z,16.90
2018-06-05T03:00:44.325Z,15.20
2018-06-05T03:05:47.445Z,15.00
2018-06-05T03:10:50.773Z,15.40
2018-06-05T03:15:53.741Z,16.20
2018-06-05T03:20:56.873Z,15.70
2018-06-05T03:25:59.875Z,13.50
2018-06-05T03:31:03.009Z,15.70
2018-06-05T03:36:06.052Z,14.03
2018-06-05T03:41:09.073Z,14.33
2018-06-05T03:46:12.106Z,15.07
2018-06-05T03:51:15.068Z,14.67
2018-06-05T03:56:18.079Z,14.70
2018-06-05T04:01:21.061Z,14.70
2018-06-05T04:06:24.110Z,15.47
2018-06-05T04:11:27.101Z,13.17
2018-06-05T04:16:30.117Z,14.57
2018-06-05T04:21:33.106Z,14.83
2018-06-05T04:26:36.097Z,14.87
2018-06-05T04:31:39.100Z,16.43
2018-06-05T04:36:42.097Z,14.03
2018-06-05T04:41:45.086Z,14.30
2018-06-05T04:46:48.120Z,14.63
2018-06-05T04:51:51.101Z,15.33
2018-06-05T04:56:54.097Z,14.40
2018-06-05T05:01:57.092Z,14.90
2018-06-05T05:07:00.077Z,15.30
2018-06-05T05:12:03.077Z,15.10
2018-06-05T05:17:06.111Z,15.10
2018-06-05T05:22:09.109Z,19.67
2018-06-05T05:27:12.108Z,15.73
2018-06-05T05:32:15.142Z,14.80
2018-06-05T05:37:18.200Z,15.17
2018-06-05T05:42:21.200Z,15.50
2018-06-05T05:47:24.190Z,15.30
2018-06-05T05:52:27.239Z,14.47
2018-06-05T05:57:30.227Z,14.70
2018-06-05T06:02:33.242Z,14.17
2018-06-05T06:07:36.252Z,13.67
2018-06-05T06:12:39.266Z,13.80
2018-06-05T06:17:42.273Z,13.83
2018-06-05T06:22:45.262Z,13.53
2018-06-05T06:27:48.298Z,13.23
2018-06-05T06:32:51.269Z,13.47
2018-06-05T06:37:54.259Z,13.80
2018-06-05T06:42:57.237Z,13.87
2018-06-05T06:48:00.285Z,13.20
2018-06-05T06:53:03.309Z,13.07
2018-06-05T06:58:06.308Z,13.43
2018-06-05T07:03:09.277Z,14.10
2018-06-05T07:08:12.266Z,12.80
2018-06-05T07:13:15.245Z,14.27
2018-06-05T07:18:18.324Z,13.90
2018-06-05T07:23:21.278Z,14.20
2018-06-05T07:28:24.261Z,14.00
2018-06-05T07:33:27.269Z,15.17
2018-06-05T07:38:30.246Z,15.47
2018-06-05T07:43:33.261Z,15.53
2018-06-05T07:48:36.257Z,14.50
2018-06-05T07:53:39.242Z,13.73
2018-06-05T07:58:42.223Z,14.53
2018-06-05T08:03:45.200Z,14.10
2018-06-05T08:08:48.186Z,20.80
2018-06-05T08:13:51.145Z,13.37
2018-06-05T08:18:54.123Z,13.63
2018-06-05T08:23:57.088Z,12.97
2018-06-05T08:29:00.086Z,12.50
2018-06-05T08:34:03.106Z,10.83
2018-06-05T08:39:07.763Z,10.80
2018-06-05T08:44:10.754Z,8.90
2018-06-05T08:49:13.725Z,9.80
2018-06-05T08:54:16.776Z,10.40
2018-06-05T08:59:19.726Z,10.50
2018-06-05T09:04:22.718Z,9.87
2018-06-05T09:09:25.698Z,9.03
2018-06-05T09:14:28.669Z,9.60
2018-06-05T09:19:31.653Z,9.83
2018-06-05T09:24:34.658Z,10.00
2018-06-05T09:29:37.641Z,9.93
2018-06-05T09:34:40.609Z,9.90
2018-06-05T09:39:43.649Z,10.80
2018-06-05T09:44:46.616Z,11.10
2018-06-05T09:49:49.609Z,11.30
2018-06-05T09:54:52.590Z,11.60
2018-06-05T09:59:55.588Z,11.30
2018-06-05T10:04:58.605Z,11.00
2018-06-05T10:10:01.587Z,11.63
2018-06-05T10:15:04.629Z,12.30
2018-06-05T10:20:07.601Z,11.80
2018-06-05T10:25:10.581Z,10.80
2018-06-05T10:30:13.553Z,11.17
2018-06-05T10:35:16.529Z,11.77
2018-06-05T10:40:19.510Z,10.80
2018-06-05T10:45:22.497Z,10.50
2018-06-05T10:50:25.510Z,11.20
2018-06-05T10:55:28.497Z,9.20
2018-06-05T11:00:31.638Z,9.83
2018-06-05T11:05:34.510Z,10.70
2018-06-05T11:10:37.513Z,10.10
2018-06-05T11:15:40.499Z,9.60
2018-06-05T11:20:43.507Z,10.63
2018-06-05T11:25:46.514Z,10.50
2018-06-05T11:30:49.514Z,10.40
2018-06-05T11:35:52.493Z,10.27
2018-06-05T11:40:55.501Z,9.50
2018-06-05T11:45:58.513Z,9.77
2018-06-05T11:51:01.517Z,10.30
2018-06-05T11:56:04.739Z,9.90
2018-06-05T12:01:07.854Z,10.30
2018-06-05T12:06:10.870Z,9.27
2018-06-05T12:11:13.925Z,11.10
2018-06-05T12:16:16.934Z,9.77
2018-06-05T12:21:19.925Z,11.10
2018-06-05T12:26:22.951Z,11.67
2018-06-05T12:31:25.970Z,11.03
2018-06-05T12:36:28.946Z,11.07
2018-06-05T12:41:31.950Z,11.10
2018-06-05T12:46:34.933Z,10.90
2018-06-05T12:51:37.980Z,11.50
2018-06-05T12:56:40.990Z,11.10
2018-06-05T13:01:44.051Z,11.97
2018-06-05T13:06:47.053Z,10.93
2018-06-05T13:11:50.064Z,11.30
2018-06-05T13:16:53.050Z,11.10
2018-06-05T13:21:56.013Z,11.37
2018-06-05T13:27:04.685Z,11.20
2018-06-05T13:32:07.686Z,11.60
2018-06-05T13:37:10.669Z,12.07
2018-06-05T13:42:13.637Z,12.27
2018-06-05T13:47:16.634Z,12.10
2018-06-05T13:52:19.640Z,12.13
2018-06-05T13:57:22.645Z,11.47
2018-06-05T14:02:25.621Z,11.33
2018-06-05T14:07:28.617Z,12.53
2018-06-05T14:12:31.635Z,12.00
2018-06-05T14:17:34.653Z,11.43
2018-06-05T14:22:37.701Z,11.63
2018-06-05T14:27:40.715Z,12.47
2018-06-05T14:32:43.874Z,12.43
2018-06-05T14:37:46.862Z,11.77
2018-06-05T14:42:49.858Z,14.00
2018-06-05T14:47:53.689Z,12.00
2018-06-05T14:52:56.705Z,12.70
2018-06-05T14:57:59.762Z,12.80
2018-06-05T15:03:02.808Z,11.50
2018-06-05T15:08:06.323Z,13.30
2018-06-05T15:13:09.503Z,12.80
2018-06-05T15:18:13.165Z,11.57
2018-06-05T15:23:16.282Z,14.27
2018-06-05T15:28:19.447Z,13.40
2018-06-05T15:33:22.473Z,13.63
2018-06-05T15:38:25.546Z,13.57
2018-06-05T15:43:28.576Z,10.63
2018-06-05T15:48:31.638Z,12.23
2018-06-05T15:53:34.791Z,12.70
2018-06-05T15:58:37.858Z,12.80
2018-06-05T16:03:40.971Z,11.40
2018-06-05T16:08:44.086Z,11.40
2018-06-05T16:13:47.179Z,11.57
2018-06-05T16:18:50.230Z,11.70
2018-06-05T16:23:53.315Z,11.40
2018-06-05T16:28:58.389Z,11.37
2018-06-05T16:34:01.527Z,11.93
2018-06-05T16:39:07.756Z,12.10
2018-06-05T16:44:10.809Z,11.10
2018-06-05T16:49:13.844Z,11.50
2018-06-05T16:54:16.950Z,11.17
2018-06-05T16:59:20.042Z,11.57
2018-06-05T17:04:23.170Z,11.67
2018-06-05T17:09:26.180Z,10.67
2018-06-05T17:14:29.257Z,12.17
2018-06-05T17:19:32.407Z,9.63
2018-06-05T17:24:35.554Z,10.17
2018-06-05T17:29:38.567Z,11.30
2018-06-05T17:34:41.591Z,12.23
2018-06-05T17:39:44.647Z,11.03
2018-06-05T17:44:47.666Z,10.50
2018-06-05T17:49:50.682Z,11.53
2018-06-05T17:54:53.677Z,11.50
2018-06-05T17:59:56.685Z,12.43
2018-06-05T18:04:59.702Z,11.63
2018-06-05T18:10:02.783Z,12.23
2018-06-05T18:15:05.994Z,11.00
2018-06-05T18:20:09.020Z,12.13
2018-06-05T18:25:12.018Z,12.70
2018-06-05T18:30:15.104Z,11.27
2018-06-05T18:35:18.173Z,11.33
2018-06-05T18:40:21.517Z,12.30
2018-06-05T18:45:24.560Z,11.97
2018-06-05T18:50:27.597Z,14.80
2018-06-05T18:55:30.646Z,12.20
2018-06-05T19:00:33.787Z,12.70
2018-06-05T19:05:36.862Z,12.23
2018-06-05T19:10:39.883Z,12.70
2018-06-05T19:15:42.963Z,13.90
2018-06-05T19:20:46.012Z,14.83
2018-06-05T19:25:49.065Z,16.17
2018-06-05T19:30:52.081Z,12.40
2018-06-05T19:35:55.253Z,12.70
2018-06-05T19:40:58.289Z,12.50
2018-06-05T19:46:01.342Z,12.90
2018-06-05T19:51:04.471Z,12.87
2018-06-05T19:56:07.945Z,12.20
2018-06-05T20:01:10.990Z,13.43
2018-06-05T20:06:14.106Z,11.67
2018-06-05T20:11:17.613Z,12.20
2018-06-05T20:16:21.365Z,14.27
2018-06-05T20:21:24.393Z,14.37
2018-06-05T20:26:27.423Z,13.60
2018-06-05T20:31:30.442Z,13.70
2018-06-05T20:36:33.467Z,12.60
2018-06-05T20:41:36.477Z,15.27
2018-06-05T20:46:39.480Z,14.33
2018-06-05T20:51:42.511Z,13.53
2018-06-05T20:56:45.564Z,13.17
2018-06-05T21:01:48.561Z,13.60
2018-06-05T21:06:51.588Z,12.17
2018-06-05T21:11:54.609Z,10.90
2018-06-05T21:16:57.606Z,9.30
2018-06-05T21:22:00.637Z,8.47
2018-06-05T21:27:03.674Z,9.17
2018-06-05T21:32:06.677Z,7.90
2018-06-05T21:37:09.706Z,8.20
2018-06-05T21:42:12.706Z,8.87
2018-06-05T21:47:15.721Z,9.30
2018-06-05T21:52:18.750Z,7.77
2018-06-05T21:57:21.756Z,8.10
2018-06-05T22:02:24.782Z,8.13
2018-06-05T22:07:27.837Z,7.90
2018-06-05T22:12:30.865Z,7.57
2018-06-05T22:17:33.892Z,8.00
2018-06-05T22:22:36.902Z,8.50
2018-06-05T22:27:39.903Z,8.27
2018-06-05T22:32:42.918Z,8.60
2018-06-05T22:37:45.981Z,7.33
2018-06-05T22:42:48.978Z,8.37
2018-06-05T22:47:52.022Z,7.30
2018-06-05T22:52:55.030Z,7.87
2018-06-05T22:57:58.043Z,8.07
2018-06-05T23:03:01.122Z,10.10
2018-06-05T23:08:04.358Z,8.50
2018-06-05T23:13:07.398Z,7.63
2018-06-05T23:18:11.438Z,7.90
2018-06-05T23:23:14.468Z,7.90
2018-06-05T23:28:17.509Z,7.60
2018-06-05T23:33:20.521Z,8.60
2018-06-05T23:38:23.542Z,6.90
2018-06-05T23:43:26.590Z,7.33
2018-06-05T23:48:29.606Z,7.50
2018-06-05T23:53:32.614Z,7.57
2018-06-05T23:58:35.669Z,7.83
